Brownsville, TX

5:00 AM CST on January 18, 2017 (GMT -0600)
West Brownsville | | Change Station

Elev 35 ft 25.92 °N, 97.52 °W | Updated 5 minutes ago

Overcast
Overcast
70.0 °F
Feels Like 70.0 °F
N
2.0
Wind Variable Wind from ESE
Gusts 5.0 mph

Today
High -- | Low -- °F
--% Chance of Precip.
Yesterday
High -- | Low -- °F
Precip. -- in
Pressure 29.99 in
Visibility 7.0 miles
Clouds Mostly Cloudy 2500 ft
Mostly Cloudy 2900 ft
Overcast 8000 ft
Dew Point 69 °F
Humidity 95%
Rainfall 0.00 in
Snow Depth Not available.
7:18 AM 6:03 PM
Waning Gibbous, 64% visible
METAR KBRO 181053Z AUTO 16003KT 7SM BKN025 BKN029 OVC080 21/21 A2999 RMK AO2 SLP154 T02060206
Pressure 29.99 in
Visibility 7.0 miles
Clouds Mostly Cloudy 2500 ft
Mostly Cloudy 2900 ft
Overcast 8000 ft
Dew Point 69 °F
Humidity 95%
Rainfall 0.00 in
Snow Depth Not available.
7:18 AM 6:03 PM
Waning Gibbous, 64% visible
METAR KBRO 181053Z AUTO 16003KT 7SM BKN025 BKN029 OVC080 21/21 A2999 RMK AO2 SLP154 T02060206

Get Your Daily Forecast Email!

Thanks for signing up!

Be on the lookout for a verification email in your inbox.

You'll start receiving the daily forecast at 8 AM.

×

10-Day Weather Forecast

Almanac

Astronomy

Jan. 18, 2017 Rise Set
Actual Time
Civil Twilight
Nautical Twilight
Astronomical Twilight
Moon
Length of Visible Light
Length of Day
Tomorrow will be .
, % of the Moon is Illuminated

Today's Extremes

State Highs State Lows

Community

WunderPhotos

Upload Photos

1,962,540 photos uploaded!

WunderBlog® & News

Nearby

Air Quality

  Air Quality AQ Index Pollutant
Not available.

Snow Depth

Station Depth Elevation

Earthquake Activity

City Distance Mag. Time & Date
Minimum magnitude displayed is 2.5.

Coastal Water Temperatures

Place Temperature

Stations

Nearby Weather Stations

Station Location Temp. Windchill Dew Point Humidity Wind Precip. Elev Updated Type
                   

Watches & Warnings

There are currently no watches in effect.